createdAt,value
2022-10-12T00:00:24.450Z,6.43
2022-10-12T00:02:50.997Z,6.35
2022-10-12T00:05:18.445Z,4.63
2022-10-12T00:07:45.000Z,7.30
2022-10-12T00:10:11.754Z,7.15
2022-10-12T00:12:38.249Z,7.32
2022-10-12T00:15:06.583Z,5.95
2022-10-12T00:17:33.067Z,5.93
2022-10-12T00:19:59.553Z,6.60
2022-10-12T00:22:26.102Z,5.55
2022-10-12T00:24:54.475Z,5.85
2022-10-12T00:27:21.410Z,7.75
2022-10-12T00:29:48.349Z,6.70
2022-10-12T00:32:15.339Z,6.05
2022-10-12T00:34:43.421Z,6.20
2022-10-12T00:37:09.954Z,5.32
2022-10-12T00:39:36.489Z,9.82
2022-10-12T00:42:03.044Z,8.40
2022-10-12T00:44:43.667Z,8.85
2022-10-12T00:47:20.647Z,7.25
2022-10-12T00:49:55.158Z,10.15
2022-10-12T00:52:26.522Z,7.90
2022-10-12T00:54:54.552Z,9.40
2022-10-12T00:57:22.661Z,11.25
2022-10-12T00:59:58.092Z,11.43
2022-10-12T01:04:55.423Z,11.65
2022-10-12T01:07:22.142Z,7.97
2022-10-12T01:09:49.170Z,10.52
2022-10-12T01:12:16.880Z,7.32
2022-10-12T01:14:46.440Z,8.63
2022-10-12T01:17:37.631Z,10.48
2022-10-12T01:20:19.454Z,5.93
2022-10-12T01:23:25.106Z,9.77
2022-10-12T01:26:12.619Z,12.32
2022-10-12T01:29:11.461Z,13.40
2022-10-12T01:31:49.433Z,6.18
2022-10-12T01:34:31.789Z,7.78
2022-10-12T01:37:08.550Z,8.25
2022-10-12T01:39:41.523Z,11.50
2022-10-12T01:42:15.696Z,6.88
2022-10-12T01:44:43.024Z,12.68
2022-10-12T01:47:09.678Z,8.80
2022-10-12T01:49:36.703Z,8.75
2022-10-12T01:52:18.413Z,8.48
2022-10-12T01:55:07.226Z,7.30
2022-10-12T01:57:48.817Z,8.52
2022-10-12T02:00:16.858Z,7.35
2022-10-12T02:03:10.256Z,9.48
2022-10-12T02:06:00.717Z,6.78
2022-10-12T02:08:35.807Z,7.95
2022-10-12T02:11:14.674Z,11.43
2022-10-12T02:13:48.925Z,10.57
2022-10-12T02:16:19.937Z,12.38
2022-10-12T02:18:50.626Z,10.70
2022-10-12T02:21:21.958Z,8.25
2022-10-12T02:23:53.166Z,9.35
2022-10-12T02:26:21.574Z,9.30
2022-10-12T02:28:50.116Z,9.85
2022-10-12T02:31:34.205Z,7.22
2022-10-12T02:34:11.849Z,9.85
2022-10-12T02:36:54.814Z,10.23
2022-10-12T02:39:27.019Z,9.30
2022-10-12T02:41:59.667Z,10.25
2022-10-12T02:44:33.983Z,9.48
2022-10-12T02:47:04.305Z,9.20
2022-10-12T02:49:34.146Z,13.10
2022-10-12T02:52:02.257Z,10.80
2022-10-12T02:54:32.788Z,12.30
2022-10-12T02:56:59.364Z,10.98
2022-10-12T02:59:26.104Z,10.40
2022-10-12T03:01:52.618Z,11.80
2022-10-12T03:04:22.390Z,13.35
2022-10-12T03:06:48.820Z,8.05
2022-10-12T03:09:15.434Z,9.40
2022-10-12T03:11:44.558Z,15.23
2022-10-12T03:14:12.251Z,9.98
2022-10-12T03:16:38.707Z,7.35
2022-10-12T03:19:05.292Z,8.82
2022-10-12T03:21:31.760Z,12.48
2022-10-12T03:24:02.501Z,9.23
2022-10-12T03:26:28.988Z,11.18
2022-10-12T03:28:55.554Z,13.90
2022-10-12T03:31:22.387Z,10.43
2022-10-12T03:33:53.091Z,6.10
2022-10-12T03:36:19.575Z,10.02
2022-10-12T03:38:46.098Z,10.93
2022-10-12T03:41:12.800Z,7.22
2022-10-12T03:43:39.262Z,10.38
2022-10-12T03:46:05.773Z,10.05
2022-10-12T03:48:32.515Z,13.05
2022-10-12T03:50:59.206Z,11.45
2022-10-12T03:53:25.795Z,10.65
2022-10-12T03:55:53.745Z,14.88
2022-10-12T03:58:20.230Z,10.80
2022-10-12T04:00:46.842Z,12.93
2022-10-12T04:03:13.310Z,9.38
2022-10-12T04:05:40.863Z,8.95
2022-10-12T04:08:07.364Z,9.40
2022-10-12T04:10:33.904Z,12.00
2022-10-12T04:13:00.386Z,15.93
2022-10-12T04:15:27.304Z,13.48
2022-10-12T04:17:53.774Z,12.35
2022-10-12T04:20:20.232Z,12.60
2022-10-12T04:22:46.682Z,14.13
2022-10-12T04:25:14.420Z,14.23
2022-10-12T04:27:41.248Z,12.68
2022-10-12T04:30:08.483Z,11.50
2022-10-12T04:32:35.170Z,15.50
2022-10-12T04:35:05.049Z,11.38
2022-10-12T04:37:31.714Z,16.02
2022-10-12T04:39:58.171Z,17.63
2022-10-12T04:42:24.671Z,12.65
2022-10-12T04:44:54.251Z,13.55
2022-10-12T04:47:20.757Z,12.88
2022-10-12T04:49:47.264Z,13.73
2022-10-12T04:52:13.799Z,13.23
2022-10-12T04:54:40.307Z,13.10
2022-10-12T04:57:06.808Z,10.98
2022-10-12T04:59:33.299Z,12.82
2022-10-12T05:02:00.028Z,14.13
2022-10-12T05:04:28.299Z,10.77
2022-10-12T05:06:55.086Z,15.65
2022-10-12T05:09:21.774Z,11.93
2022-10-12T05:11:48.471Z,10.70
2022-10-12T05:14:16.214Z,13.57
2022-10-12T05:16:42.688Z,7.18
2022-10-12T05:19:09.426Z,9.45
2022-10-12T05:21:36.003Z,9.90
2022-10-12T05:24:05.494Z,10.40
2022-10-12T05:26:32.059Z,11.70
2022-10-12T05:28:58.579Z,11.73
2022-10-12T05:31:25.285Z,11.13
2022-10-12T05:33:56.454Z,11.63
2022-10-12T05:36:22.937Z,13.02
2022-10-12T05:38:49.431Z,12.77
2022-10-12T05:41:16.018Z,14.38
2022-10-12T05:43:42.462Z,14.95
2022-10-12T05:46:14.236Z,13.52
2022-10-12T05:48:41.174Z,13.35
2022-10-12T05:51:07.609Z,23.65
2022-10-12T05:53:34.047Z,14.98
2022-10-12T05:56:05.061Z,14.60
2022-10-12T05:58:32.083Z,11.40
2022-10-12T06:01:06.560Z,12.52
2022-10-12T06:03:35.167Z,15.55
2022-10-12T06:06:03.442Z,22.17
2022-10-12T06:08:31.374Z,14.98
2022-10-12T06:10:57.846Z,15.13
2022-10-12T06:13:25.326Z,12.52
2022-10-12T06:15:53.865Z,15.52
2022-10-12T06:18:20.456Z,12.02
2022-10-12T06:21:20.974Z,13.68
2022-10-12T06:23:41.361Z,15.82
2022-10-12T06:26:08.177Z,12.90
2022-10-12T06:28:34.728Z,14.05
2022-10-12T06:31:01.305Z,16.83
2022-10-12T06:33:28.184Z,10.90
2022-10-12T06:35:56.121Z,13.57
2022-10-12T06:38:23.026Z,14.48
2022-10-12T06:40:49.671Z,14.05
2022-10-12T06:43:16.122Z,13.85
2022-10-12T06:45:43.870Z,14.38
2022-10-12T06:48:12.877Z,13.32
2022-10-12T06:50:41.488Z,16.08
2022-10-12T06:53:07.978Z,11.52
2022-10-12T06:55:34.495Z,11.48
2022-10-12T06:58:01.006Z,11.15
2022-10-12T07:00:27.694Z,11.25
2022-10-12T07:02:54.214Z,16.02
2022-10-12T07:05:23.556Z,14.98
2022-10-12T07:07:50.105Z,10.52
2022-10-12T07:10:16.681Z,12.55
2022-10-12T07:12:43.123Z,13.57
2022-10-12T07:15:14.467Z,14.82
2022-10-12T07:17:41.215Z,13.57
2022-10-12T07:20:08.380Z,14.20
2022-10-12T07:22:35.009Z,11.60
2022-10-12T07:25:06.621Z,15.70
2022-10-12T07:27:33.085Z,13.50
2022-10-12T07:29:59.547Z,14.93
2022-10-12T07:32:29.541Z,16.83
2022-10-12T07:34:57.519Z,16.05
2022-10-12T07:37:24.373Z,13.27
2022-10-12T07:39:57.013Z,16.38
2022-10-12T07:42:25.468Z,16.45
2022-10-12T07:44:55.110Z,17.33
2022-10-12T07:47:21.673Z,16.50
2022-10-12T07:49:48.144Z,14.18
2022-10-12T07:52:14.682Z,17.58
2022-10-12T07:54:43.168Z,17.80
2022-10-12T07:57:09.705Z,20.48
2022-10-12T07:59:36.251Z,15.55
2022-10-12T08:02:02.960Z,16.67
2022-10-12T08:04:30.290Z,22.33
2022-10-12T08:06:57.947Z,18.63
2022-10-12T08:09:24.601Z,18.25
2022-10-12T08:11:51.285Z,23.38
2022-10-12T08:14:18.076Z,17.98
2022-10-12T08:16:45.523Z,17.80
2022-10-12T08:19:12.149Z,14.15
2022-10-12T08:21:39.204Z,20.33
2022-10-12T08:24:10.980Z,20.48
2022-10-12T08:26:38.300Z,15.77
2022-10-12T08:29:06.326Z,19.13
2022-10-12T08:31:32.854Z,21.05
2022-10-12T08:34:04.256Z,18.60
2022-10-12T08:36:30.850Z,24.42
2022-10-12T08:38:57.445Z,20.73
2022-10-12T08:41:47.905Z,20.48
2022-10-12T08:44:29.604Z,20.52
2022-10-12T08:47:06.394Z,23.55
2022-10-12T08:49:33.673Z,24.05
2022-10-12T08:52:06.206Z,20.88
2022-10-12T08:54:43.631Z,25.63
2022-10-12T08:57:17.674Z,23.85
2022-10-12T08:59:45.336Z,19.90
2022-10-12T09:02:34.540Z,22.60
2022-10-12T09:05:13.506Z,21.17
2022-10-12T09:07:46.598Z,21.50
2022-10-12T09:10:40.901Z,23.17
2022-10-12T09:13:31.180Z,23.77
2022-10-12T09:16:06.017Z,22.67
2022-10-12T09:18:45.713Z,20.35
2022-10-12T09:21:20.992Z,19.55
2022-10-12T09:23:54.138Z,17.98
2022-10-12T09:26:32.987Z,20.52
2022-10-12T09:28:59.570Z,23.55
2022-10-12T09:31:35.268Z,21.85
2022-10-12T09:34:08.311Z,19.40
2022-10-12T09:36:38.022Z,23.77
2022-10-12T09:39:10.915Z,22.52
2022-10-12T09:41:43.445Z,24.52
2022-10-12T09:44:22.468Z,23.00
2022-10-12T09:46:58.884Z,20.67
2022-10-12T09:49:44.380Z,24.58
2022-10-12T09:52:14.003Z,26.45
2022-10-12T09:54:46.599Z,18.98
2022-10-12T09:57:40.897Z,21.13
2022-10-12T10:00:30.312Z,19.05
2022-10-12T10:02:57.258Z,23.33
2022-10-12T10:05:33.907Z,23.23
2022-10-12T10:08:20.087Z,27.67
2022-10-12T10:10:58.281Z,20.92
2022-10-12T10:13:35.661Z,24.98
2022-10-12T10:16:05.997Z,24.85
2022-10-12T10:18:40.495Z,21.00
2022-10-12T10:21:10.414Z,22.43
2022-10-12T10:27:07.642Z,25.73
2022-10-12T10:29:42.339Z,22.80
2022-10-12T10:32:26.715Z,26.20
2022-10-12T10:35:13.301Z,24.73
2022-10-12T10:37:50.513Z,24.80
2022-10-12T10:40:25.439Z,23.65
2022-10-12T10:42:55.623Z,22.20
2022-10-12T10:45:29.415Z,23.05
2022-10-12T10:48:01.363Z,24.88
2022-10-12T10:50:38.935Z,22.00
2022-10-12T10:53:14.122Z,23.45
2022-10-12T10:55:40.541Z,23.25
2022-10-12T10:58:23.826Z,19.10
2022-10-12T11:00:53.122Z,21.00
2022-10-12T11:03:31.475Z,21.10
2022-10-12T11:06:18.275Z,16.63
2022-10-12T11:08:46.502Z,19.00
2022-10-12T11:11:19.190Z,19.20
2022-10-12T11:14:00.579Z,20.20
2022-10-12T11:16:27.043Z,19.65
2022-10-12T11:18:57.788Z,18.70
2022-10-12T11:21:45.457Z,19.35
2022-10-12T11:24:19.695Z,25.08
2022-10-12T11:27:16.924Z,19.70
2022-10-12T11:29:43.681Z,21.10
2022-10-12T11:32:31.609Z,21.85
2022-10-12T11:35:02.177Z,16.25
2022-10-12T11:37:38.533Z,16.02
2022-10-12T11:40:09.289Z,12.63
2022-10-12T11:42:43.572Z,12.00
2022-10-12T11:45:30.031Z,15.70
2022-10-12T11:48:02.681Z,12.52
2022-10-12T11:50:38.658Z,13.88
2022-10-12T11:53:19.423Z,17.67
2022-10-12T11:56:27.639Z,15.05
2022-10-12T11:59:04.222Z,17.20
2022-10-12T12:01:58.157Z,13.95
2022-10-12T12:04:47.403Z,16.10
2022-10-12T12:07:23.269Z,13.70
2022-10-12T12:09:51.633Z,14.23
2022-10-12T12:12:27.135Z,15.48
2022-10-12T12:14:55.059Z,15.85
2022-10-12T12:17:28.009Z,12.25
2022-10-12T12:20:02.647Z,13.10
2022-10-12T12:22:47.743Z,13.40
2022-10-12T12:25:18.079Z,12.82
2022-10-12T12:27:55.700Z,12.43
2022-10-12T12:30:26.374Z,14.73
2022-10-12T12:33:02.305Z,12.60
2022-10-12T12:35:51.531Z,16.90
2022-10-12T12:38:24.777Z,14.07
2022-10-12T12:40:57.690Z,10.07
2022-10-12T12:43:30.296Z,11.02
2022-10-12T12:46:09.981Z,11.10
2022-10-12T12:48:39.595Z,10.50
2022-10-12T12:51:12.572Z,11.77
2022-10-12T12:53:45.790Z,13.73
2022-10-12T12:56:32.319Z,15.02
2022-10-12T12:59:16.397Z,16.17
2022-10-12T13:02:24.050Z,13.27
2022-10-12T13:05:18.230Z,13.05
2022-10-12T13:08:09.918Z,12.35
2022-10-12T13:10:51.783Z,11.15
2022-10-12T13:14:07.799Z,15.02
2022-10-12T13:17:30.662Z,10.60
2022-10-12T13:19:27.858Z,10.57
2022-10-12T13:21:56.327Z,12.98
2022-10-12T13:24:36.372Z,14.15
2022-10-12T13:27:24.662Z,13.48
2022-10-12T13:30:04.378Z,13.07
2022-10-12T13:33:03.051Z,16.42
2022-10-12T13:36:08.582Z,15.32
2022-10-12T13:38:38.484Z,12.52
2022-10-12T13:41:17.602Z,16.40
2022-10-12T13:43:57.106Z,13.10
2022-10-12T13:46:45.197Z,14.23
2022-10-12T13:49:18.894Z,10.52
2022-10-12T13:51:51.062Z,15.20
2022-10-12T13:54:33.932Z,14.95
2022-10-12T13:59:39.284Z,14.43
2022-10-12T14:02:18.111Z,13.32
2022-10-12T14:04:44.687Z,10.93
2022-10-12T14:07:20.762Z,41.10
2022-10-12T14:09:51.680Z,14.05
2022-10-12T14:12:22.999Z,13.27
2022-10-12T14:14:55.183Z,9.88
2022-10-12T14:17:21.987Z,9.63
2022-10-12T14:19:52.963Z,13.73
2022-10-12T14:22:26.535Z,11.05
2022-10-12T14:25:17.343Z,9.40
2022-10-12T14:27:43.976Z,13.32
2022-10-12T14:30:23.802Z,9.57
2022-10-12T14:32:53.957Z,9.20
2022-10-12T14:35:29.293Z,11.10
2022-10-12T14:37:57.149Z,11.38
2022-10-12T14:40:39.267Z,9.93
2022-10-12T14:43:10.038Z,7.78
2022-10-12T14:45:41.125Z,6.00
2022-10-12T14:48:16.549Z,6.82
2022-10-12T14:50:43.750Z,6.70
2022-10-12T14:53:12.764Z,9.25
2022-10-12T14:55:41.639Z,5.88
2022-10-12T14:58:13.666Z,9.75
2022-10-12T15:00:40.181Z,9.07
2022-10-12T15:03:06.702Z,8.80
2022-10-12T15:05:34.664Z,11.50
2022-10-12T15:08:07.071Z,11.25
2022-10-12T15:10:33.792Z,7.55
2022-10-12T15:13:00.265Z,7.95
2022-10-12T15:15:39.267Z,5.95
2022-10-12T15:18:06.674Z,8.65
2022-10-12T15:20:34.601Z,9.32
2022-10-12T15:23:02.682Z,9.88
2022-10-12T15:25:47.703Z,10.55
2022-10-12T15:28:14.333Z,8.90
2022-10-12T15:31:04.264Z,7.78
2022-10-12T15:33:27.919Z,11.27
2022-10-12T15:35:55.365Z,8.52
2022-10-12T15:38:22.520Z,9.18
2022-10-12T15:40:51.821Z,8.73
2022-10-12T15:43:18.450Z,9.23
2022-10-12T15:45:47.835Z,10.10
2022-10-12T15:48:14.335Z,6.78
2022-10-12T15:50:46.636Z,7.65
2022-10-12T15:53:24.005Z,7.85
2022-10-12T15:55:55.292Z,9.43
2022-10-12T15:58:25.207Z,7.97
2022-10-12T16:00:51.850Z,7.90
2022-10-12T16:03:25.574Z,8.27
2022-10-12T16:05:53.258Z,8.75
2022-10-12T16:08:19.820Z,8.07
2022-10-12T16:10:47.704Z,10.25
2022-10-12T16:13:14.793Z,5.35
2022-10-12T16:15:42.495Z,6.75
2022-10-12T16:18:10.090Z,7.15
2022-10-12T16:20:38.678Z,6.95
2022-10-12T16:23:08.456Z,8.57
2022-10-12T16:25:39.466Z,7.70
2022-10-12T16:28:06.098Z,6.78
2022-10-12T16:30:32.770Z,5.78
2022-10-12T16:32:59.271Z,9.45
2022-10-12T16:35:25.761Z,7.68
2022-10-12T16:37:52.290Z,7.22
2022-10-12T16:40:18.872Z,10.73
2022-10-12T16:42:45.369Z,6.90
2022-10-12T16:45:12.968Z,7.00
2022-10-12T16:47:42.813Z,9.05
2022-10-12T16:50:10.004Z,7.72
2022-10-12T16:52:36.520Z,10.60
2022-10-12T16:55:04.764Z,6.47
2022-10-12T16:57:31.736Z,8.90
2022-10-12T16:59:58.756Z,7.40
2022-10-12T17:02:27.334Z,7.47
2022-10-12T17:04:56.961Z,6.45
2022-10-12T17:07:23.504Z,5.95
2022-10-12T17:09:50.049Z,7.07
2022-10-12T17:12:16.762Z,8.98
2022-10-12T17:14:43.606Z,7.43
2022-10-12T17:17:10.089Z,10.45
2022-10-12T17:19:39.785Z,9.02
2022-10-12T17:22:08.710Z,8.00
2022-10-12T17:24:37.889Z,7.13
2022-10-12T17:27:06.920Z,11.05
2022-10-12T17:29:36.339Z,9.00
2022-10-12T17:32:04.079Z,11.23
2022-10-12T17:34:38.545Z,8.80
2022-10-12T17:37:07.686Z,10.10
2022-10-12T17:39:37.081Z,6.78
2022-10-12T17:42:04.720Z,6.47
2022-10-12T17:44:34.435Z,13.55
2022-10-12T17:47:01.094Z,6.70
2022-10-12T17:49:28.458Z,10.30
2022-10-12T17:51:55.481Z,12.10
2022-10-12T17:54:26.603Z,8.52
2022-10-12T17:56:55.540Z,9.68
2022-10-12T17:59:22.425Z,8.73
2022-10-12T18:01:49.974Z,8.98
2022-10-12T18:04:20.052Z,9.60
2022-10-12T18:06:46.559Z,8.57
2022-10-12T18:09:13.357Z,8.25
2022-10-12T18:11:40.513Z,9.57
2022-10-12T18:14:11.602Z,8.98
2022-10-12T18:16:38.393Z,8.30
2022-10-12T18:19:06.488Z,7.90
2022-10-12T18:21:33.920Z,7.63
2022-10-12T18:24:16.115Z,9.57
2022-10-12T18:26:47.041Z,14.15
2022-10-12T18:29:17.301Z,8.52
2022-10-12T18:31:44.028Z,8.55
2022-10-12T18:34:14.917Z,8.60
2022-10-12T18:36:42.745Z,7.82
2022-10-12T18:39:09.685Z,9.55
2022-10-12T18:41:36.208Z,8.48
2022-10-12T18:44:07.303Z,10.68
2022-10-12T18:46:36.605Z,10.77
2022-10-12T18:49:06.894Z,7.95
2022-10-12T18:51:36.314Z,8.80
2022-10-12T18:54:06.546Z,8.95
2022-10-12T18:56:35.946Z,9.20
2022-10-12T18:59:02.943Z,6.15
2022-10-12T19:01:30.727Z,7.63
2022-10-12T19:04:02.182Z,13.13
2022-10-12T19:06:32.346Z,8.77
2022-10-12T19:08:59.762Z,9.25
2022-10-12T19:11:27.405Z,6.95
2022-10-12T19:13:57.349Z,10.73
2022-10-12T19:16:25.025Z,7.32
2022-10-12T19:19:02.923Z,10.13
2022-10-12T19:21:29.905Z,6.60
2022-10-12T19:23:56.886Z,10.80
2022-10-12T19:26:26.046Z,9.55
2022-10-12T19:28:54.822Z,9.77
2022-10-12T19:31:27.777Z,11.82
2022-10-12T19:34:01.930Z,8.93
2022-10-12T19:36:29.843Z,9.30
2022-10-12T19:38:58.332Z,9.98
2022-10-12T19:41:26.245Z,9.93
2022-10-12T19:43:58.420Z,12.43
2022-10-12T19:46:25.113Z,9.05
2022-10-12T19:48:53.342Z,12.27
2022-10-12T19:51:21.813Z,9.30
2022-10-12T19:53:58.066Z,10.57
2022-10-12T19:56:25.306Z,11.70
2022-10-12T19:58:52.935Z,10.10
2022-10-12T20:01:22.355Z,11.15
2022-10-12T20:03:53.222Z,18.90
2022-10-12T20:06:22.454Z,17.60
2022-10-12T20:08:50.507Z,13.27
2022-10-12T20:11:21.551Z,13.18
2022-10-12T20:13:53.199Z,10.82
2022-10-12T20:16:20.674Z,10.65
2022-10-12T20:18:48.138Z,9.98
2022-10-12T20:21:18.833Z,12.57
2022-10-12T20:23:45.694Z,13.50
2022-10-12T20:26:17.427Z,13.60
2022-10-12T20:28:44.052Z,11.90
2022-10-12T20:31:10.710Z,11.90
2022-10-12T20:33:38.913Z,10.65
2022-10-12T20:36:18.722Z,10.50
2022-10-12T20:38:45.278Z,11.65
2022-10-12T20:41:13.622Z,11.25
2022-10-12T20:43:40.483Z,11.80
2022-10-12T20:46:12.954Z,14.80
2022-10-12T20:48:42.389Z,12.48
2022-10-12T20:51:13.098Z,11.10
2022-10-12T20:53:39.601Z,14.00
2022-10-12T20:56:08.691Z,16.67
2022-10-12T20:58:35.149Z,13.43
2022-10-12T21:01:06.211Z,15.57
2022-10-12T21:03:32.839Z,19.67
2022-10-12T21:06:07.366Z,15.15
2022-10-12T21:08:34.497Z,13.20
2022-10-12T21:11:01.175Z,13.43
2022-10-12T21:13:31.373Z,14.88
2022-10-12T21:15:58.353Z,14.38
2022-10-12T21:18:25.633Z,15.15
2022-10-12T21:21:02.056Z,16.38
2022-10-12T21:23:29.113Z,16.48
2022-10-12T21:25:57.482Z,17.70
2022-10-12T21:28:24.277Z,16.20
2022-10-12T21:30:50.789Z,13.82
2022-10-12T21:33:18.333Z,16.92
2022-10-12T21:35:45.565Z,15.82
2022-10-12T21:38:12.065Z,12.27
2022-10-12T21:40:38.505Z,14.18
2022-10-12T21:43:05.135Z,21.48
2022-10-12T21:45:32.611Z,15.70
2022-10-12T21:47:59.090Z,14.02
2022-10-12T21:50:26.719Z,16.48
2022-10-12T21:52:57.874Z,14.80
2022-10-12T21:55:26.609Z,14.30
2022-10-12T21:57:53.072Z,15.85
2022-10-12T22:00:19.533Z,13.07
2022-10-12T22:02:46.028Z,15.82
2022-10-12T22:05:17.032Z,15.05
2022-10-12T22:07:43.744Z,16.05
2022-10-12T22:10:11.423Z,15.57
2022-10-12T22:12:38.655Z,15.15
2022-10-12T22:15:09.799Z,16.08
2022-10-12T22:17:36.332Z,16.23
2022-10-12T22:20:03.655Z,16.58
2022-10-12T22:22:30.187Z,19.10
2022-10-12T22:24:56.651Z,18.00
2022-10-12T22:27:25.914Z,14.25
2022-10-12T22:29:52.446Z,14.88
2022-10-12T22:32:22.991Z,19.52
2022-10-12T22:34:49.570Z,15.18
2022-10-12T22:37:16.052Z,15.60
2022-10-12T22:39:42.539Z,17.88
2022-10-12T22:42:09.038Z,15.65
2022-10-12T22:44:37.634Z,15.38
2022-10-12T22:47:04.248Z,15.75
2022-10-12T22:49:30.744Z,17.65
2022-10-12T22:51:57.804Z,15.20
2022-10-12T22:54:29.391Z,14.93
2022-10-12T22:56:55.961Z,17.52
2022-10-12T22:59:23.458Z,17.67
2022-10-12T23:01:49.885Z,16.98
2022-10-12T23:04:20.579Z,20.83
2022-10-12T23:06:47.219Z,17.00
2022-10-12T23:09:13.992Z,15.98
2022-10-12T23:11:40.438Z,13.32
2022-10-12T23:14:06.967Z,17.05
2022-10-12T23:16:33.898Z,18.13
2022-10-12T23:19:03.380Z,17.90
2022-10-12T23:21:31.453Z,20.70
2022-10-12T23:24:04.826Z,20.75
2022-10-12T23:26:31.650Z,18.80
2022-10-12T23:28:58.195Z,19.48
2022-10-12T23:31:28.259Z,18.35
2022-10-12T23:34:01.821Z,15.52
2022-10-12T23:36:29.013Z,13.50
2022-10-12T23:38:55.849Z,15.05
2022-10-12T23:41:22.772Z,17.38
2022-10-12T23:43:53.696Z,17.17
2022-10-12T23:46:20.473Z,18.58
2022-10-12T23:48:46.943Z,15.82
2022-10-12T23:51:13.493Z,15.10
2022-10-12T23:53:42.490Z,16.98
2022-10-12T23:56:09.986Z,16.30
2022-10-12T23:58:36.579Z,15.82
